createdAt,value
2022-11-28T00:05:11.988Z,5.15
2022-11-28T00:10:32.624Z,5.57
2022-11-28T00:15:57.842Z,5.85
2022-11-28T00:21:19.886Z,6.85
2022-11-28T00:26:41.777Z,6.90
2022-11-28T00:32:03.501Z,7.28
2022-11-28T00:37:24.179Z,7.35
2022-11-28T00:42:44.809Z,7.47
2022-11-28T00:48:05.539Z,8.68
2022-11-28T00:53:26.160Z,7.43
2022-11-28T00:58:50.680Z,8.77
2022-11-28T01:04:14.704Z,8.50
2022-11-28T01:09:35.376Z,6.23
2022-11-28T01:14:58.158Z,9.77
2022-11-28T01:20:18.625Z,8.48
2022-11-28T01:25:39.701Z,7.93
2022-11-28T01:31:08.292Z,7.35
2022-11-28T01:36:29.282Z,8.65
2022-11-28T01:41:49.651Z,9.57
2022-11-28T01:47:10.156Z,6.65
2022-11-28T01:52:31.139Z,7.80
2022-11-28T01:57:54.030Z,7.57
2022-11-28T02:03:20.852Z,7.75
2022-11-28T02:08:41.999Z,6.65
2022-11-28T02:14:31.173Z,7.32
2022-11-28T02:20:16.871Z,7.43
2022-11-28T02:26:22.721Z,8.35
2022-11-28T02:32:07.284Z,8.63
2022-11-28T02:37:46.120Z,8.23
2022-11-28T02:45:18.451Z,9.32
2022-11-28T02:51:07.338Z,8.93
2022-11-28T02:56:27.905Z,9.20
2022-11-28T03:01:48.656Z,9.27
2022-11-28T03:07:17.742Z,8.98
2022-11-28T03:12:56.560Z,8.98
2022-11-28T03:18:27.128Z,8.27
2022-11-28T03:23:54.221Z,7.90
2022-11-28T03:29:36.998Z,8.10
2022-11-28T03:35:14.100Z,7.25
2022-11-28T03:40:42.618Z,8.93
2022-11-28T03:46:08.427Z,6.95
2022-11-28T03:51:35.462Z,8.68
2022-11-28T03:57:11.679Z,6.72
2022-11-28T04:02:39.984Z,7.13
2022-11-28T04:08:19.129Z,6.57
2022-11-28T04:13:51.243Z,7.43
2022-11-28T04:19:53.429Z,6.68
2022-11-28T04:25:17.220Z,6.93
2022-11-28T04:30:39.868Z,5.15
2022-11-28T04:36:03.460Z,6.32
2022-11-28T04:41:32.333Z,6.20
2022-11-28T04:46:55.341Z,6.60
2022-11-28T04:52:36.765Z,6.00
2022-11-28T04:58:11.392Z,5.55
2022-11-28T05:03:32.428Z,6.07
2022-11-28T05:08:53.359Z,5.95
2022-11-28T05:14:14.136Z,6.05
2022-11-28T05:19:34.734Z,6.18
2022-11-28T05:24:55.064Z,6.53
2022-11-28T05:30:15.983Z,5.78
2022-11-28T05:35:39.670Z,5.97
2022-11-28T05:41:01.096Z,5.65
2022-11-28T05:46:21.983Z,5.72
2022-11-28T05:51:43.091Z,6.82
2022-11-28T05:57:06.328Z,5.25
2022-11-28T06:02:26.855Z,5.80
2022-11-28T06:07:47.721Z,5.97
2022-11-28T06:13:08.442Z,5.15
2022-11-28T06:18:29.095Z,5.38
2022-11-28T06:23:50.067Z,5.50
2022-11-28T06:29:10.866Z,5.55
2022-11-28T06:34:32.427Z,5.93
2022-11-28T06:39:52.914Z,5.90
2022-11-28T06:45:13.898Z,5.45
2022-11-28T06:50:34.279Z,6.03
2022-11-28T06:55:54.841Z,5.07
2022-11-28T07:01:19.037Z,5.40
2022-11-28T07:12:00.448Z,6.32
2022-11-28T07:17:21.518Z,6.00
2022-11-28T07:22:43.620Z,5.75
2022-11-28T07:28:04.171Z,5.20
2022-11-28T07:33:24.842Z,5.43
2022-11-28T07:38:53.451Z,6.32
2022-11-28T07:44:17.693Z,6.65
2022-11-28T07:49:38.085Z,7.85
2022-11-28T07:54:58.534Z,6.18
2022-11-28T08:00:19.772Z,6.28
2022-11-28T08:05:42.121Z,6.30
2022-11-28T08:11:05.419Z,5.10
2022-11-28T08:16:28.182Z,6.07
2022-11-28T08:21:48.882Z,5.82
2022-11-28T08:27:09.092Z,7.28
2022-11-28T08:32:30.477Z,7.18
2022-11-28T08:37:50.852Z,8.70
2022-11-28T08:43:11.385Z,6.28
2022-11-28T08:48:33.007Z,8.52
2022-11-28T08:53:59.147Z,8.27
2022-11-28T08:59:20.313Z,6.75
2022-11-28T09:04:41.088Z,7.00
2022-11-28T09:10:02.932Z,6.88
2022-11-28T09:15:23.342Z,7.82
2022-11-28T09:20:44.061Z,7.28
2022-11-28T09:26:13.786Z,7.30
2022-11-28T09:31:34.319Z,7.72
2022-11-28T09:36:54.815Z,7.80
2022-11-28T09:42:44.077Z,6.72
2022-11-28T09:48:23.001Z,7.95
2022-11-28T09:54:13.090Z,7.80
2022-11-28T09:59:34.325Z,7.78
2022-11-28T10:05:28.127Z,8.15
2022-11-28T10:10:53.712Z,8.02
2022-11-28T10:16:33.588Z,7.25
2022-11-28T10:22:00.352Z,8.43
2022-11-28T10:27:27.018Z,7.78
2022-11-28T10:32:57.671Z,7.78
2022-11-28T10:38:20.875Z,7.85
2022-11-28T10:44:10.968Z,8.85
2022-11-28T10:50:05.995Z,7.65
2022-11-28T10:55:45.649Z,7.43
2022-11-28T11:01:06.424Z,8.50
2022-11-28T11:06:36.082Z,7.72
2022-11-28T11:17:37.805Z,7.28
2022-11-28T11:23:02.043Z,8.27
2022-11-28T11:28:39.446Z,8.48
2022-11-28T11:34:06.694Z,9.32
2022-11-28T11:39:27.681Z,8.90
2022-11-28T11:44:48.289Z,8.48
2022-11-28T11:50:18.438Z,10.32
2022-11-28T11:55:51.409Z,8.15
2022-11-28T12:01:17.018Z,10.50
2022-11-28T12:06:41.091Z,9.88
2022-11-28T12:12:13.571Z,9.88
2022-11-28T12:18:09.306Z,8.48
2022-11-28T12:23:49.011Z,10.55
2022-11-28T12:29:37.660Z,9.00
2022-11-28T12:35:06.554Z,9.48
2022-11-28T12:40:55.258Z,8.38
2022-11-28T12:46:47.711Z,8.15
2022-11-28T12:52:29.265Z,7.25
2022-11-28T12:58:13.849Z,8.43
2022-11-28T13:04:12.955Z,8.80
2022-11-28T13:09:52.266Z,9.35
2022-11-28T13:15:42.670Z,8.25
2022-11-28T13:21:16.914Z,10.07
2022-11-28T13:27:14.964Z,8.70
2022-11-28T13:32:45.329Z,9.93
2022-11-28T13:39:01.687Z,9.20
2022-11-28T13:44:41.773Z,9.70
2022-11-28T13:50:30.867Z,8.80
2022-11-28T13:56:04.997Z,9.73
2022-11-28T14:01:28.080Z,9.73
2022-11-28T14:06:59.118Z,10.80
2022-11-28T14:12:30.620Z,10.30
2022-11-28T14:18:54.387Z,10.75
2022-11-28T14:24:22.787Z,9.40
2022-11-28T14:29:49.418Z,10.73
2022-11-28T14:35:38.014Z,10.07
2022-11-28T14:41:03.518Z,10.65
2022-11-28T14:46:30.401Z,10.35
2022-11-28T14:52:09.822Z,11.15
2022-11-28T14:57:36.050Z,11.05
2022-11-28T15:03:16.180Z,10.57
2022-11-28T15:08:59.202Z,9.07
2022-11-28T15:14:22.860Z,11.07
2022-11-28T15:19:46.343Z,10.07
2022-11-28T15:25:25.189Z,9.52
2022-11-28T15:30:50.002Z,9.70
2022-11-28T15:36:27.408Z,10.57
2022-11-28T15:41:48.365Z,10.85
2022-11-28T15:47:19.225Z,10.13
2022-11-28T15:52:39.668Z,10.77
2022-11-28T15:58:25.467Z,11.48
2022-11-28T16:03:54.700Z,12.77
2022-11-28T16:09:19.033Z,12.07
2022-11-28T16:14:44.591Z,10.37
2022-11-28T16:20:06.037Z,9.65
2022-11-28T16:25:27.433Z,11.65
2022-11-28T16:30:48.626Z,9.82
2022-11-28T16:36:24.994Z,10.52
2022-11-28T16:41:54.677Z,11.15
2022-11-28T16:47:28.044Z,11.80
2022-11-28T16:52:56.159Z,10.57
2022-11-28T16:58:21.624Z,10.57
2022-11-28T17:03:50.954Z,10.90
2022-11-28T17:09:12.634Z,10.10
2022-11-28T17:14:33.754Z,10.98
2022-11-28T17:19:54.287Z,10.68
2022-11-28T17:25:18.989Z,13.10
2022-11-28T17:30:39.808Z,10.10
2022-11-28T17:36:00.245Z,11.60
2022-11-28T17:41:23.200Z,11.82
2022-11-28T17:46:43.632Z,11.30
2022-11-28T17:52:03.930Z,11.40
2022-11-28T17:57:25.121Z,10.95
2022-11-28T18:02:46.006Z,10.77
2022-11-28T18:08:07.107Z,10.75
2022-11-28T18:13:29.454Z,12.45
2022-11-28T18:18:49.863Z,12.57
2022-11-28T18:24:10.641Z,12.02
2022-11-28T18:29:31.612Z,11.48
2022-11-28T18:34:52.634Z,11.95
2022-11-28T18:40:13.687Z,11.27
2022-11-28T18:45:35.276Z,11.48
2022-11-28T18:50:55.794Z,10.88
2022-11-28T18:56:16.606Z,12.18
2022-11-28T19:01:36.951Z,11.18
2022-11-28T19:06:58.151Z,11.70
2022-11-28T19:12:19.759Z,11.10
2022-11-28T19:17:40.651Z,11.35
2022-11-28T19:23:01.540Z,12.07
2022-11-28T19:28:22.705Z,11.45
2022-11-28T19:33:45.092Z,10.50
2022-11-28T19:39:07.560Z,11.82
2022-11-28T19:44:29.338Z,12.95
2022-11-28T19:49:49.957Z,10.98
2022-11-28T19:55:11.426Z,11.55
2022-11-28T20:00:32.752Z,12.77
2022-11-28T20:05:53.045Z,11.23
2022-11-28T20:11:17.235Z,13.18
2022-11-28T20:16:37.940Z,10.98
2022-11-28T20:21:58.816Z,12.02
2022-11-28T20:27:20.120Z,11.88
2022-11-28T20:32:40.558Z,13.10
2022-11-28T20:38:02.380Z,12.20
2022-11-28T20:43:23.079Z,13.02
2022-11-28T20:48:44.124Z,14.07
2022-11-28T20:54:06.111Z,12.40
2022-11-28T20:59:26.658Z,14.68
2022-11-28T21:04:46.917Z,13.88
2022-11-28T21:10:07.820Z,12.80
2022-11-28T21:15:29.684Z,14.20
2022-11-28T21:20:50.283Z,13.35
2022-11-28T21:26:27.390Z,13.60
2022-11-28T21:31:51.075Z,14.70
2022-11-28T21:37:11.695Z,13.50
2022-11-28T21:42:32.176Z,14.05
2022-11-28T21:47:52.821Z,13.10
2022-11-28T21:53:13.616Z,14.48
2022-11-28T21:58:34.268Z,14.15
2022-11-28T22:04:00.743Z,15.57
2022-11-28T22:09:23.193Z,16.63
2022-11-28T22:14:43.710Z,14.15
2022-11-28T22:20:05.836Z,15.13
2022-11-28T22:25:26.828Z,16.25
2022-11-28T22:30:48.618Z,15.70
2022-11-28T22:36:13.664Z,15.45
2022-11-28T22:41:34.057Z,15.93
2022-11-28T22:46:54.714Z,15.95
2022-11-28T22:52:15.258Z,16.85
2022-11-28T22:57:35.699Z,16.00
2022-11-28T23:02:56.291Z,16.48
2022-11-28T23:08:16.698Z,16.45
2022-11-28T23:13:38.475Z,15.75
2022-11-28T23:19:02.631Z,16.65
2022-11-28T23:24:23.564Z,15.90
2022-11-28T23:29:45.131Z,17.05
2022-11-28T23:35:08.118Z,16.55
2022-11-28T23:40:28.878Z,16.95
2022-11-28T23:45:49.696Z,17.92
2022-11-28T23:51:12.702Z,15.82
2022-11-28T23:56:35.928Z,16.55
